Accueil
METAR-TAF:

METAR-TAF

Aéroports :

Aéroport international de Bergame-Orio al Serio (Le Caravage)

Bergame, Italie

latitude: 45-40N, longitude: 009-42E, altitude: 238 m

Observation

Le bulletin a été fait il y a 34 minutes, à 15:50 UTC
Vent 5 kt de nord/nord-est, variant entre nord-ouest et est/nord-est
Température 27°C
Humidité 58%
Pression 1014 hPa
Visibilité 10 km ou plus
pas de nuages en-dessous de 1500 mètres et pas de cumulonimbus.

METAR: LIME 281550Z 02005KT 320V070 CAVOK 27/18 Q1014 NOSIG

Heure: 18:24 (16:24 UTC)

Prévision

Le bulletin a été fait il y a 5 heures et 24 minutes, à 11:00 UTC
Prévision valable du 28 à 12 UTC au 29 à 12 UTC
Vent 5 kt de direction variable
Visibilité 10 km ou plus
Nuages épars à une hauteur de 4000 ft
Temporairement
du 28 à 12 UTC au 28 à 16 UTC
averses de pluie

TAF: LIME 281100Z 2812/2912 VRB05KT 9999 SCT040 TEMPO 2812/2816 SHRA

Observations et prévisions météorologiques de plus de 4000 aéroports (messages METAR et TAF).

Les stations disponibles sont représentées par des disques jaunes et rouges sur la carte.

Passer la souris dessus pour voir le nom de la station.

Cliquer dessus pour voir les observations et prévisions météorologiques.

Pour changer de carte: cliquez sur les boutons verts avec une croix noire pour zoomer, sur le bouton vert avec un tiret pour effectuer un zoom arrière, ou sur les flèches vertes pour les cartes adjacentes.


METAR-TAF: